首页
METAR-TAF:

METAR-TAF

机场 :

Lewistown Municipal Airport

刘易斯敦, 蒙大拿州, 美国

纬度: 47-02-57N, 经度: 109-27-59W, 海拔: 1270米

当前天气观测

该预报发布于33分钟前的22:54 UTC
风速9节,风向西转西北,有时为18节阵风
温度 31°C
湿度 18%
气压 1015 hPa
能見度: 16.1公里
天空无云

METAR: KLWT 152254Z AUTO 30009G18KT 10SM CLR 31/04 A2998 RMK AO2 SLP107 T03060039

时间: 17:27 (23:27 UTC)

预报

该预报发布于2小时和17分钟前的21:10 UTC
预报有效从15日的 21点(UTC)到 16日的 18点(UTC)
风速11节,风向西转西北,有时为22节阵风
能見度: 10公里
少量云层高于15000英尺
从 16日的 0200点(UTC)
风速5节,风向多变
能見度: 10公里
少量云层高于15000英尺
从 16日的 1100点(UTC)
风速3节,风向多变
能見度: 10公里
少量云层高于25000英尺

TAF: KLWT 152110Z 1521/1618 30011G22KT P6SM FEW150 FM160200 VRB05KT P6SM FEW150 FM161100 VRB03KT P6SM FEW250

超过4000个机场的气象观测和天气预报(METAR&TAF报告)。

可查询的气象台以黄色和红色小点在地图上表示。

将鼠标移到小点上方,可查看气象台名称。

然后点击查看天气观测和预报。

如需切换地图:点击带黑十字的绿色按钮放大地图;点击带横线的绿色按钮缩小地图;或者点击绿色箭头查看邻近地区的地图。


METAR-TAF: